sensor_id;sensor_type;location;lat;lon;timestamp;noise_LAeq;noise_LA_min;noise_LA_max;noise_LA01;noise_LA95
46393;Laerm;32099;53.588;10.176;2023-02-15T00:00:01;34.09;32.10;38.81;;
46393;Laerm;32099;53.588;10.176;2023-02-15T00:02:27;34.97;31.68;48.93;;
46393;Laerm;32099;53.588;10.176;2023-02-15T00:04:52;34.35;31.74;41.03;;
46393;Laerm;32099;53.588;10.176;2023-02-15T00:07:19;35.47;31.95;49.46;;
46393;Laerm;32099;53.588;10.176;2023-02-15T00:09:47;34.27;32.10;37.85;;
46393;Laerm;32099;53.588;10.176;2023-02-15T00:12:13;33.80;31.71;39.92;;
46393;Laerm;32099;53.588;10.176;2023-02-15T00:14:39;34.02;31.72;37.83;;
46393;Laerm;32099;53.588;10.176;2023-02-15T00:17:04;51.93;31.81;75.59;;
46393;Laerm;32099;53.588;10.176;2023-02-15T00:19:30;48.80;31.63;69.59;;
46393;Laerm;32099;53.588;10.176;2023-02-15T00:21:55;34.24;31.99;41.31;;
46393;Laerm;32099;53.588;10.176;2023-02-15T00:24:21;33.72;31.07;43.01;;
46393;Laerm;32099;53.588;10.176;2023-02-15T00:26:47;33.23;31.33;38.28;;
46393;Laerm;32099;53.588;10.176;2023-02-15T00:29:14;33.02;31.34;37.11;;
46393;Laerm;32099;53.588;10.176;2023-02-15T00:31:39;32.89;31.22;38.32;;
46393;Laerm;32099;53.588;10.176;2023-02-15T00:34:07;33.87;31.17;47.60;;
46393;Laerm;32099;53.588;10.176;2023-02-15T00:36:35;34.50;31.81;42.52;;
46393;Laerm;32099;53.588;10.176;2023-02-15T00:39:01;34.48;32.08;53.39;;
46393;Laerm;32099;53.588;10.176;2023-02-15T00:41:26;34.01;32.20;39.18;;
46393;Laerm;32099;53.588;10.176;2023-02-15T00:43:51;36.29;32.43;48.38;;
46393;Laerm;32099;53.588;10.176;2023-02-15T00:46:17;35.33;32.13;47.09;;
46393;Laerm;32099;53.588;10.176;2023-02-15T00:48:42;34.51;31.83;39.47;;
46393;Laerm;32099;53.588;10.176;2023-02-15T00:51:07;36.06;31.87;56.08;;
46393;Laerm;32099;53.588;10.176;2023-02-15T00:53:33;33.56;31.48;37.22;;
46393;Laerm;32099;53.588;10.176;2023-02-15T00:55:58;34.47;32.06;38.69;;
46393;Laerm;32099;53.588;10.176;2023-02-15T00:58:24;34.60;32.63;38.20;;
46393;Laerm;32099;53.588;10.176;2023-02-15T01:00:50;34.41;32.05;38.32;;
46393;Laerm;32099;53.588;10.176;2023-02-15T01:03:17;34.08;31.65;43.40;;
46393;Laerm;32099;53.588;10.176;2023-02-15T01:05:43;33.62;31.43;43.47;;
46393;Laerm;32099;53.588;10.176;2023-02-15T01:08:08;33.65;31.35;39.64;;
46393;Laerm;32099;53.588;10.176;2023-02-15T01:10:34;34.57;31.73;45.84;;
46393;Laerm;32099;53.588;10.176;2023-02-15T01:13:00;35.82;31.94;49.39;;
46393;Laerm;32099;53.588;10.176;2023-02-15T01:15:25;37.11;31.94;54.65;;
46393;Laerm;32099;53.588;10.176;2023-02-15T01:17:51;33.13;31.21;42.71;;
46393;Laerm;32099;53.588;10.176;2023-02-15T01:20:19;33.68;31.90;38.06;;
46393;Laerm;32099;53.588;10.176;2023-02-15T01:22:45;33.98;31.84;40.43;;
46393;Laerm;32099;53.588;10.176;2023-02-15T01:25:11;33.46;31.66;40.92;;
46393;Laerm;32099;53.588;10.176;2023-02-15T01:27:36;33.71;31.73;41.19;;
46393;Laerm;32099;53.588;10.176;2023-02-15T01:30:02;33.41;31.55;38.42;;
46393;Laerm;32099;53.588;10.176;2023-02-15T01:32:29;33.44;31.51;38.84;;
46393;Laerm;32099;53.588;10.176;2023-02-15T01:34:55;34.60;31.98;45.08;;
46393;Laerm;32099;53.588;10.176;2023-02-15T01:37:20;33.27;31.55;41.33;;
46393;Laerm;32099;53.588;10.176;2023-02-15T01:39:45;33.87;31.54;43.08;;
46393;Laerm;32099;53.588;10.176;2023-02-15T01:42:11;36.86;31.79;53.28;;
46393;Laerm;32099;53.588;10.176;2023-02-15T01:44:59;35.93;31.97;47.91;;
46393;Laerm;32099;53.588;10.176;2023-02-15T01:47:34;34.95;31.62;50.23;;
46393;Laerm;32099;53.588;10.176;2023-02-15T01:50:17;34.21;31.85;43.85;;
46393;Laerm;32099;53.588;10.176;2023-02-15T01:52:51;33.32;31.32;39.83;;
46393;Laerm;32099;53.588;10.176;2023-02-15T01:55:18;34.61;31.35;48.00;;
46393;Laerm;32099;53.588;10.176;2023-02-15T01:57:45;34.01;31.55;43.71;;
46393;Laerm;32099;53.588;10.176;2023-02-15T02:00:12;33.12;31.41;42.80;;
46393;Laerm;32099;53.588;10.176;2023-02-15T02:02:39;33.71;31.75;39.69;;
46393;Laerm;32099;53.588;10.176;2023-02-15T02:05:06;33.18;31.24;39.85;;
46393;Laerm;32099;53.588;10.176;2023-02-15T02:07:35;33.56;31.68;39.54;;
46393;Laerm;32099;53.588;10.176;2023-02-15T02:10:06;33.24;31.43;39.75;;
46393;Laerm;32099;53.588;10.176;2023-02-15T02:12:32;33.27;31.39;39.54;;
46393;Laerm;32099;53.588;10.176;2023-02-15T02:18:35;33.31;31.59;41.06;;
46393;Laerm;32099;53.588;10.176;2023-02-15T02:23:49;33.49;31.43;40.21;;
46393;Laerm;32099;53.588;10.176;2023-02-15T02:35:22;33.61;31.67;40.26;;
46393;Laerm;32099;53.588;10.176;2023-02-15T02:43:31;33.77;31.91;40.49;;
46393;Laerm;32099;53.588;10.176;2023-02-15T02:46:15;33.64;31.57;40.94;;
46393;Laerm;32099;53.588;10.176;2023-02-15T02:48:43;35.22;31.85;47.83;;
46393;Laerm;32099;53.588;10.176;2023-02-15T02:51:09;34.06;32.22;47.55;;
46393;Laerm;32099;53.588;10.176;2023-02-15T02:53:34;34.34;31.96;40.52;;
46393;Laerm;32099;53.588;10.176;2023-02-15T02:56:08;34.20;31.60;42.32;;
46393;Laerm;32099;53.588;10.176;2023-02-15T02:58:42;33.76;31.95;40.84;;
46393;Laerm;32099;53.588;10.176;2023-02-15T03:01:17;34.24;31.88;42.90;;
46393;Laerm;32099;53.588;10.176;2023-02-15T03:03:47;34.49;32.10;44.38;;
46393;Laerm;32099;53.588;10.176;2023-02-15T03:06:27;34.73;31.80;41.88;;
46393;Laerm;32099;53.588;10.176;2023-02-15T03:09:08;35.07;31.65;47.46;;
46393;Laerm;32099;53.588;10.176;2023-02-15T03:11:40;34.56;32.19;42.05;;
46393;Laerm;32099;53.588;10.176;2023-02-15T03:14:05;34.46;32.36;41.71;;
46393;Laerm;32099;53.588;10.176;2023-02-15T03:16:31;34.26;31.95;40.53;;
46393;Laerm;32099;53.588;10.176;2023-02-15T03:19:09;43.00;32.13;75.09;;
46393;Laerm;32099;53.588;10.176;2023-02-15T03:21:47;36.49;32.30;48.34;;
46393;Laerm;32099;53.588;10.176;2023-02-15T03:24:25;34.82;32.50;41.38;;
46393;Laerm;32099;53.588;10.176;2023-02-15T03:26:53;35.26;32.76;48.83;;
46393;Laerm;32099;53.588;10.176;2023-02-15T03:29:23;35.15;32.27;53.34;;
46393;Laerm;32099;53.588;10.176;2023-02-15T03:31:54;48.51;32.79;70.36;;
46393;Laerm;32099;53.588;10.176;2023-02-15T03:34:21;34.80;32.55;40.28;;
46393;Laerm;32099;53.588;10.176;2023-02-15T03:36:59;35.35;32.40;44.74;;
46393;Laerm;32099;53.588;10.176;2023-02-15T03:42:29;35.55;32.30;47.28;;
46393;Laerm;32099;53.588;10.176;2023-02-15T03:45:02;36.55;31.85;46.55;;
46393;Laerm;32099;53.588;10.176;2023-02-15T03:47:42;39.40;32.93;49.80;;
46393;Laerm;32099;53.588;10.176;2023-02-15T03:50:15;35.01;32.56;43.45;;
46393;Laerm;32099;53.588;10.176;2023-02-15T03:53:03;36.95;32.25;47.01;;
46393;Laerm;32099;53.588;10.176;2023-02-15T03:55:30;35.72;32.78;47.56;;
46393;Laerm;32099;53.588;10.176;2023-02-15T03:57:56;49.16;32.79;71.09;;
46393;Laerm;32099;53.588;10.176;2023-02-15T04:00:47;52.84;33.02;73.85;;
46393;Laerm;32099;53.588;10.176;2023-02-15T04:03:37;37.10;33.05;46.43;;
46393;Laerm;32099;53.588;10.176;2023-02-15T04:06:03;36.22;32.91;44.95;;
46393;Laerm;32099;53.588;10.176;2023-02-15T04:08:28;37.28;32.87;49.92;;
46393;Laerm;32099;53.588;10.176;2023-02-15T04:11:12;35.80;32.52;46.06;;
46393;Laerm;32099;53.588;10.176;2023-02-15T04:13:38;36.31;32.64;43.57;;
46393;Laerm;32099;53.588;10.176;2023-02-15T04:16:03;35.99;33.28;42.26;;
46393;Laerm;32099;53.588;10.176;2023-02-15T04:21:17;36.76;32.85;45.97;;
46393;Laerm;32099;53.588;10.176;2023-02-15T04:24:01;37.47;32.92;50.40;;
46393;Laerm;32099;53.588;10.176;2023-02-15T04:26:45;44.95;32.88;65.16;;
46393;Laerm;32099;53.588;10.176;2023-02-15T04:29:13;35.50;32.50;45.18;;
46393;Laerm;32099;53.588;10.176;2023-02-15T04:31:38;47.03;33.33;68.05;;
46393;Laerm;32099;53.588;10.176;2023-02-15T04:34:03;36.32;33.61;41.70;;
46393;Laerm;32099;53.588;10.176;2023-02-15T04:36:28;45.36;33.52;67.14;;
46393;Laerm;32099;53.588;10.176;2023-02-15T04:38:54;42.58;33.30;63.80;;
46393;Laerm;32099;53.588;10.176;2023-02-15T04:41:19;37.72;33.30;48.76;;
46393;Laerm;32099;53.588;10.176;2023-02-15T04:43:44;47.14;33.46;67.13;;
46393;Laerm;32099;53.588;10.176;2023-02-15T04:46:10;36.84;33.46;44.63;;
46393;Laerm;32099;53.588;10.176;2023-02-15T04:48:35;49.47;34.11;72.05;;
46393;Laerm;32099;53.588;10.176;2023-02-15T04:51:05;42.28;34.05;61.44;;
46393;Laerm;32099;53.588;10.176;2023-02-15T04:53:31;47.26;34.20;68.45;;
46393;Laerm;32099;53.588;10.176;2023-02-15T04:55:57;45.76;34.33;64.90;;
46393;Laerm;32099;53.588;10.176;2023-02-15T04:58:22;48.20;34.18;68.14;;
46393;Laerm;32099;53.588;10.176;2023-02-15T05:00:47;48.48;34.17;69.29;;
46393;Laerm;32099;53.588;10.176;2023-02-15T05:03:13;54.33;34.49;73.50;;
46393;Laerm;32099;53.588;10.176;2023-02-15T05:05:38;38.94;34.61;49.71;;
46393;Laerm;32099;53.588;10.176;2023-02-15T05:08:03;49.82;34.54;67.63;;
46393;Laerm;32099;53.588;10.176;2023-02-15T05:10:29;38.86;34.12;48.99;;
46393;Laerm;32099;53.588;10.176;2023-02-15T05:12:54;48.84;34.49;68.95;;
46393;Laerm;32099;53.588;10.176;2023-02-15T05:15:19;40.35;34.85;51.99;;
46393;Laerm;32099;53.588;10.176;2023-02-15T05:17:45;41.69;34.54;52.92;;
46393;Laerm;32099;53.588;10.176;2023-02-15T05:20:10;39.86;34.69;51.14;;
46393;Laerm;32099;53.588;10.176;2023-02-15T05:22:35;39.42;34.38;52.29;;
46393;Laerm;32099;53.588;10.176;2023-02-15T05:25:00;40.81;34.32;54.64;;
46393;Laerm;32099;53.588;10.176;2023-02-15T05:27:44;44.29;34.95;68.00;;
46393;Laerm;32099;53.588;10.176;2023-02-15T05:30:28;39.18;34.60;50.59;;
46393;Laerm;32099;53.588;10.176;2023-02-15T05:32:53;38.74;34.97;55.49;;
46393;Laerm;32099;53.588;10.176;2023-02-15T05:35:19;51.06;36.05;68.21;;
46393;Laerm;32099;53.588;10.176;2023-02-15T05:37:45;44.67;36.18;62.04;;
46393;Laerm;32099;53.588;10.176;2023-02-15T05:40:10;48.21;36.90;65.74;;
46393;Laerm;32099;53.588;10.176;2023-02-15T05:42:35;40.49;35.63;53.04;;
46393;Laerm;32099;53.588;10.176;2023-02-15T05:45:01;39.95;35.97;48.68;;
46393;Laerm;32099;53.588;10.176;2023-02-15T05:47:28;47.76;35.89;68.80;;
46393;Laerm;32099;53.588;10.176;2023-02-15T05:49:54;41.36;35.67;54.44;;
46393;Laerm;32099;53.588;10.176;2023-02-15T05:52:19;52.74;36.66;72.13;;
46393;Laerm;32099;53.588;10.176;2023-02-15T05:54:44;49.64;36.52;67.67;;
46393;Laerm;32099;53.588;10.176;2023-02-15T05:57:10;50.38;37.38;69.62;;
46393;Laerm;32099;53.588;10.176;2023-02-15T05:59:35;52.32;36.21;72.36;;
46393;Laerm;32099;53.588;10.176;2023-02-15T06:02:00;51.35;36.27;71.50;;
46393;Laerm;32099;53.588;10.176;2023-02-15T06:04:26;46.98;36.67;66.32;;
46393;Laerm;32099;53.588;10.176;2023-02-15T06:06:51;40.40;35.99;50.53;;
46393;Laerm;32099;53.588;10.176;2023-02-15T06:09:16;50.41;35.68;73.68;;
46393;Laerm;32099;53.588;10.176;2023-02-15T06:11:43;48.32;35.72;70.88;;
46393;Laerm;32099;53.588;10.176;2023-02-15T06:14:09;48.25;35.76;67.82;;
46393;Laerm;32099;53.588;10.176;2023-02-15T06:16:34;43.03;36.19;73.86;;
46393;Laerm;32099;53.588;10.176;2023-02-15T06:18:59;41.36;36.82;63.87;;
46393;Laerm;32099;53.588;10.176;2023-02-15T06:21:26;40.27;35.79;52.63;;
46393;Laerm;32099;53.588;10.176;2023-02-15T06:23:51;51.31;36.45;69.34;;
46393;Laerm;32099;53.588;10.176;2023-02-15T06:26:17;50.87;35.52;72.38;;
46393;Laerm;32099;53.588;10.176;2023-02-15T06:28:42;40.68;35.63;56.57;;
46393;Laerm;32099;53.588;10.176;2023-02-15T06:31:07;50.01;35.53;70.66;;
46393;Laerm;32099;53.588;10.176;2023-02-15T06:33:32;50.65;35.37;71.83;;
46393;Laerm;32099;53.588;10.176;2023-02-15T06:36:01;47.99;35.42;66.80;;
46393;Laerm;32099;53.588;10.176;2023-02-15T06:38:27;52.32;35.26;73.70;;
46393;Laerm;32099;53.588;10.176;2023-02-15T06:40:52;52.92;35.12;70.69;;
46393;Laerm;32099;53.588;10.176;2023-02-15T06:43:17;49.17;35.85;66.86;;
46393;Laerm;32099;53.588;10.176;2023-02-15T06:45:42;53.78;35.73;71.91;;
46393;Laerm;32099;53.588;10.176;2023-02-15T06:48:08;53.79;35.50;70.24;;
46393;Laerm;32099;53.588;10.176;2023-02-15T06:50:34;53.54;34.97;71.05;;
46393;Laerm;32099;53.588;10.176;2023-02-15T06:52:59;54.04;34.29;74.36;;
46393;Laerm;32099;53.588;10.176;2023-02-15T06:55:25;41.97;35.07;55.89;;
46393;Laerm;32099;53.588;10.176;2023-02-15T06:57:50;51.18;34.84;71.27;;
46393;Laerm;32099;53.588;10.176;2023-02-15T07:00:15;52.12;34.58;67.96;;
46393;Laerm;32099;53.588;10.176;2023-02-15T07:02:42;49.36;35.45;67.78;;
46393;Laerm;32099;53.588;10.176;2023-02-15T07:05:07;40.11;35.72;49.60;;
46393;Laerm;32099;53.588;10.176;2023-02-15T07:07:33;53.74;36.59;70.97;;
46393;Laerm;32099;53.588;10.176;2023-02-15T07:09:58;41.88;36.07;57.10;;
46393;Laerm;32099;53.588;10.176;2023-02-15T07:12:23;53.59;36.80;70.95;;
46393;Laerm;32099;53.588;10.176;2023-02-15T07:15:12;61.86;37.33;81.77;;
46393;Laerm;32099;53.588;10.176;2023-02-15T07:17:38;54.67;37.89;72.52;;
46393;Laerm;32099;53.588;10.176;2023-02-15T07:20:10;41.79;35.97;58.24;;
46393;Laerm;32099;53.588;10.176;2023-02-15T07:22:36;56.05;36.33;71.51;;
46393;Laerm;32099;53.588;10.176;2023-02-15T07:25:03;49.26;36.31;67.12;;
46393;Laerm;32099;53.588;10.176;2023-02-15T07:27:30;44.93;35.51;62.17;;
46393;Laerm;32099;53.588;10.176;2023-02-15T07:29:55;44.51;35.02;61.61;;
46393;Laerm;32099;53.588;10.176;2023-02-15T07:32:21;53.34;35.71;69.75;;
46393;Laerm;32099;53.588;10.176;2023-02-15T07:34:46;51.49;35.57;68.05;;
46393;Laerm;32099;53.588;10.176;2023-02-15T07:37:14;46.65;35.55;66.17;;
46393;Laerm;32099;53.588;10.176;2023-02-15T07:39:39;55.49;36.03;70.41;;
46393;Laerm;32099;53.588;10.176;2023-02-15T07:42:05;54.03;36.30;69.09;;
46393;Laerm;32099;53.588;10.176;2023-02-15T07:44:30;46.76;34.96;63.68;;
46393;Laerm;32099;53.588;10.176;2023-02-15T07:46:55;48.06;35.13;66.07;;
46393;Laerm;32099;53.588;10.176;2023-02-15T07:49:21;39.51;35.27;48.85;;
46393;Laerm;32099;53.588;10.176;2023-02-15T07:51:46;44.67;36.00;61.94;;
46393;Laerm;32099;53.588;10.176;2023-02-15T07:54:12;39.59;35.63;51.66;;
46393;Laerm;32099;53.588;10.176;2023-02-15T07:56:37;55.58;36.01;74.79;;
46393;Laerm;32099;53.588;10.176;2023-02-15T07:59:02;51.12;36.10;67.80;;
46393;Laerm;32099;53.588;10.176;2023-02-15T08:01:35;53.27;35.76;71.33;;
46393;Laerm;32099;53.588;10.176;2023-02-15T08:04:02;39.63;35.95;54.29;;
46393;Laerm;32099;53.588;10.176;2023-02-15T08:06:30;41.75;35.65;54.20;;
46393;Laerm;32099;53.588;10.176;2023-02-15T08:08:56;52.45;36.37;69.63;;
46393;Laerm;32099;53.588;10.176;2023-02-15T08:11:24;56.40;35.38;74.51;;
46393;Laerm;32099;53.588;10.176;2023-02-15T08:14:18;41.11;35.42;56.19;;
46393;Laerm;32099;53.588;10.176;2023-02-15T08:21:42;40.00;35.74;48.98;;
46393;Laerm;32099;53.588;10.176;2023-02-15T08:24:09;47.05;35.40;66.12;;
46393;Laerm;32099;53.588;10.176;2023-02-15T08:26:35;48.99;36.02;65.27;;
46393;Laerm;32099;53.588;10.176;2023-02-15T08:29:02;56.53;35.50;75.10;;
46393;Laerm;32099;53.588;10.176;2023-02-15T08:31:28;45.87;34.66;63.72;;
46393;Laerm;32099;53.588;10.176;2023-02-15T08:33:54;47.03;35.29;64.56;;
46393;Laerm;32099;53.588;10.176;2023-02-15T08:43:08;51.62;35.33;71.20;;
46393;Laerm;32099;53.588;10.176;2023-02-15T08:45:34;40.08;35.28;52.64;;
46393;Laerm;32099;53.588;10.176;2023-02-15T08:47:59;41.13;35.16;59.83;;
46393;Laerm;32099;53.588;10.176;2023-02-15T08:50:25;49.26;34.86;67.15;;
46393;Laerm;32099;53.588;10.176;2023-02-15T08:52:50;40.07;34.66;50.43;;
46393;Laerm;32099;53.588;10.176;2023-02-15T08:55:15;39.86;35.17;49.93;;
46393;Laerm;32099;53.588;10.176;2023-02-15T08:57:40;52.54;35.45;69.13;;
46393;Laerm;32099;53.588;10.176;2023-02-15T09:00:10;40.20;35.19;55.06;;
46393;Laerm;32099;53.588;10.176;2023-02-15T09:02:36;41.57;35.51;58.82;;
46393;Laerm;32099;53.588;10.176;2023-02-15T09:05:02;39.52;35.04;55.67;;
46393;Laerm;32099;53.588;10.176;2023-02-15T09:07:27;50.96;35.24;68.46;;
46393;Laerm;32099;53.588;10.176;2023-02-15T09:09:53;54.31;35.11;72.94;;
46393;Laerm;32099;53.588;10.176;2023-02-15T09:12:19;48.52;35.68;67.72;;
46393;Laerm;32099;53.588;10.176;2023-02-15T09:14:44;49.91;35.98;68.96;;
46393;Laerm;32099;53.588;10.176;2023-02-15T09:17:09;42.92;35.10;58.07;;
46393;Laerm;32099;53.588;10.176;2023-02-15T09:19:34;48.84;35.17;66.72;;
46393;Laerm;32099;53.588;10.176;2023-02-15T09:22:00;40.71;35.93;54.63;;
46393;Laerm;32099;53.588;10.176;2023-02-15T09:24:25;49.68;35.12;69.63;;
46393;Laerm;32099;53.588;10.176;2023-02-15T09:26:50;39.60;35.25;53.17;;
46393;Laerm;32099;53.588;10.176;2023-02-15T09:29:17;51.69;35.40;71.76;;
46393;Laerm;32099;53.588;10.176;2023-02-15T09:31:48;54.02;35.62;72.23;;
46393;Laerm;32099;53.588;10.176;2023-02-15T09:34:16;39.80;34.72;52.87;;
46393;Laerm;32099;53.588;10.176;2023-02-15T09:36:42;49.20;36.02;63.88;;
46393;Laerm;32099;53.588;10.176;2023-02-15T09:45:05;52.47;35.75;68.26;;
46393;Laerm;32099;53.588;10.176;2023-02-15T09:50:44;41.16;36.59;56.59;;
46393;Laerm;32099;53.588;10.176;2023-02-15T09:54:03;51.94;36.84;71.69;;
46393;Laerm;32099;53.588;10.176;2023-02-15T09:56:32;49.22;36.69;68.47;;
46393;Laerm;32099;53.588;10.176;2023-02-15T10:07:15;48.57;35.46;67.96;;
46393;Laerm;32099;53.588;10.176;2023-02-15T10:10:32;39.28;34.85;54.65;;
46393;Laerm;32099;53.588;10.176;2023-02-15T10:16:12;53.98;34.72;69.73;;
46393;Laerm;32099;53.588;10.176;2023-02-15T10:18:55;51.75;34.79;67.89;;
46393;Laerm;32099;53.588;10.176;2023-02-15T10:21:33;38.74;33.98;48.64;;
46393;Laerm;32099;53.588;10.176;2023-02-15T10:24:27;51.69;34.06;71.33;;
46393;Laerm;32099;53.588;10.176;2023-02-15T10:27:00;49.61;34.06;68.74;;
46393;Laerm;32099;53.588;10.176;2023-02-15T10:29:37;38.18;34.01;56.96;;
46393;Laerm;32099;53.588;10.176;2023-02-15T10:32:26;50.47;33.83;70.17;;
46393;Laerm;32099;53.588;10.176;2023-02-15T10:34:58;39.69;34.88;53.84;;
46393;Laerm;32099;53.588;10.176;2023-02-15T10:38:02;48.73;34.97;68.42;;
46393;Laerm;32099;53.588;10.176;2023-02-15T10:43:41;55.74;35.48;74.69;;
46393;Laerm;32099;53.588;10.176;2023-02-15T10:54:26;39.75;34.56;55.60;;
46393;Laerm;32099;53.588;10.176;2023-02-15T10:57:02;46.71;34.09;64.16;;
46393;Laerm;32099;53.588;10.176;2023-02-15T10:59:46;53.09;34.38;71.48;;
46393;Laerm;32099;53.588;10.176;2023-02-15T11:02:23;49.60;34.99;69.33;;
46393;Laerm;32099;53.588;10.176;2023-02-15T11:05:24;47.98;34.68;66.56;;
46393;Laerm;32099;53.588;10.176;2023-02-15T11:07:55;39.07;34.65;48.76;;
46393;Laerm;32099;53.588;10.176;2023-02-15T11:10:34;39.76;34.65;56.35;;
46393;Laerm;32099;53.588;10.176;2023-02-15T11:13:05;41.87;35.68;52.52;;
46393;Laerm;32099;53.588;10.176;2023-02-15T11:18:11;50.91;35.09;69.66;;
46393;Laerm;32099;53.588;10.176;2023-02-15T11:20:52;53.50;34.24;71.64;;
46393;Laerm;32099;53.588;10.176;2023-02-15T11:23:20;42.57;35.67;65.04;;
46393;Laerm;32099;53.588;10.176;2023-02-15T11:25:53;52.61;36.39;72.80;;
46393;Laerm;32099;53.588;10.176;2023-02-15T11:28:24;50.04;35.64;68.92;;
46393;Laerm;32099;53.588;10.176;2023-02-15T11:30:54;52.59;36.10;70.34;;
46393;Laerm;32099;53.588;10.176;2023-02-15T11:33:26;40.88;35.56;53.17;;
46393;Laerm;32099;53.588;10.176;2023-02-15T11:35:58;51.14;36.28;69.68;;
46393;Laerm;32099;53.588;10.176;2023-02-15T11:38:28;40.46;34.39;55.69;;
46393;Laerm;32099;53.588;10.176;2023-02-15T11:40:58;51.53;34.40;71.01;;
46393;Laerm;32099;53.588;10.176;2023-02-15T11:43:36;43.14;35.52;58.25;;
46393;Laerm;32099;53.588;10.176;2023-02-15T11:46:03;47.68;35.33;68.42;;
46393;Laerm;32099;53.588;10.176;2023-02-15T11:48:30;39.57;35.10;56.71;;
46393;Laerm;32099;53.588;10.176;2023-02-15T11:50:56;50.41;35.06;68.69;;
46393;Laerm;32099;53.588;10.176;2023-02-15T11:53:23;50.85;35.86;68.16;;
46393;Laerm;32099;53.588;10.176;2023-02-15T11:55:53;47.26;34.66;65.40;;
46393;Laerm;32099;53.588;10.176;2023-02-15T11:58:31;50.70;38.48;66.50;;
46393;Laerm;32099;53.588;10.176;2023-02-15T12:01:09;56.27;37.37;73.94;;
46393;Laerm;32099;53.588;10.176;2023-02-15T12:03:58;48.21;36.47;66.86;;
46393;Laerm;32099;53.588;10.176;2023-02-15T12:06:28;50.04;36.78;70.60;;
46393;Laerm;32099;53.588;10.176;2023-02-15T12:09:00;51.78;38.10;70.83;;
46393;Laerm;32099;53.588;10.176;2023-02-15T12:11:39;47.25;37.73;65.52;;
46393;Laerm;32099;53.588;10.176;2023-02-15T12:14:07;42.71;38.03;58.70;;
46393;Laerm;32099;53.588;10.176;2023-02-15T12:16:45;57.37;38.40;76.58;;
46393;Laerm;32099;53.588;10.176;2023-02-15T12:19:29;48.88;35.76;68.26;;
46393;Laerm;32099;53.588;10.176;2023-02-15T12:21:57;55.75;36.11;69.02;;
46393;Laerm;32099;53.588;10.176;2023-02-15T12:24:26;50.46;36.56;67.08;;
46393;Laerm;32099;53.588;10.176;2023-02-15T12:27:05;52.19;36.84;70.44;;
46393;Laerm;32099;53.588;10.176;2023-02-15T12:30:38;42.30;36.75;64.82;;
46393;Laerm;32099;53.588;10.176;2023-02-15T12:32:53;42.66;36.64;68.24;;
46393;Laerm;32099;53.588;10.176;2023-02-15T12:35:30;49.25;37.02;68.96;;
46393;Laerm;32099;53.588;10.176;2023-02-15T12:40:40;53.34;35.96;71.07;;
46393;Laerm;32099;53.588;10.176;2023-02-15T12:43:25;53.60;37.02;73.68;;
46393;Laerm;32099;53.588;10.176;2023-02-15T12:45:50;51.21;36.37;65.98;;
46393;Laerm;32099;53.588;10.176;2023-02-15T12:48:18;51.23;37.30;69.99;;
46393;Laerm;32099;53.588;10.176;2023-02-15T12:50:46;52.57;36.64;71.06;;
46393;Laerm;32099;53.588;10.176;2023-02-15T12:53:17;44.88;37.20;56.97;;
46393;Laerm;32099;53.588;10.176;2023-02-15T12:55:56;49.36;36.60;66.05;;
46393;Laerm;32099;53.588;10.176;2023-02-15T12:58:27;47.98;36.32;66.06;;
46393;Laerm;32099;53.588;10.176;2023-02-15T13:01:09;49.91;36.51;68.78;;
46393;Laerm;32099;53.588;10.176;2023-02-15T13:04:04;42.06;37.49;54.85;;
46393;Laerm;32099;53.588;10.176;2023-02-15T13:06:35;54.04;39.31;69.96;;
46393;Laerm;32099;53.588;10.176;2023-02-15T13:09:20;54.26;39.54;72.11;;
46393;Laerm;32099;53.588;10.176;2023-02-15T13:11:47;54.52;40.70;72.08;;
46393;Laerm;32099;53.588;10.176;2023-02-15T13:14:18;49.68;40.76;67.72;;
46393;Laerm;32099;53.588;10.176;2023-02-15T13:16:46;49.55;39.67;68.41;;
46393;Laerm;32099;53.588;10.176;2023-02-15T13:19:26;43.30;39.72;52.21;;
46393;Laerm;32099;53.588;10.176;2023-02-15T13:21:55;54.34;39.76;78.86;;
46393;Laerm;32099;53.588;10.176;2023-02-15T13:24:32;52.28;38.58;72.16;;
46393;Laerm;32099;53.588;10.176;2023-02-15T13:26:59;53.06;38.61;69.11;;
46393;Laerm;32099;53.588;10.176;2023-02-15T13:29:27;54.77;39.94;67.74;;
46393;Laerm;32099;53.588;10.176;2023-02-15T13:31:55;50.46;40.94;64.36;;
46393;Laerm;32099;53.588;10.176;2023-02-15T13:34:32;51.90;41.67;70.69;;
46393;Laerm;32099;53.588;10.176;2023-02-15T13:37:06;55.56;41.02;70.69;;
46393;Laerm;32099;53.588;10.176;2023-02-15T13:39:50;48.73;39.64;64.03;;
46393;Laerm;32099;53.588;10.176;2023-02-15T13:42:39;50.15;38.81;69.55;;
46393;Laerm;32099;53.588;10.176;2023-02-15T13:48:06;47.10;40.78;63.93;;
46393;Laerm;32099;53.588;10.176;2023-02-15T13:51:19;51.90;38.90;70.52;;
46393;Laerm;32099;53.588;10.176;2023-02-15T13:57:25;51.56;39.79;64.83;;
46393;Laerm;32099;53.588;10.176;2023-02-15T14:02:42;42.80;38.79;50.77;;
46393;Laerm;32099;53.588;10.176;2023-02-15T14:13:50;44.32;40.20;54.84;;
46393;Laerm;32099;53.588;10.176;2023-02-15T14:16:34;53.59;39.64;66.67;;
46393;Laerm;32099;53.588;10.176;2023-02-15T14:19:28;49.40;40.03;66.46;;
46393;Laerm;32099;53.588;10.176;2023-02-15T14:22:14;53.08;41.92;73.65;;
46393;Laerm;32099;53.588;10.176;2023-02-15T14:24:58;55.33;41.86;73.88;;
46393;Laerm;32099;53.588;10.176;2023-02-15T14:27:41;50.15;41.49;67.43;;
46393;Laerm;32099;53.588;10.176;2023-02-15T14:30:28;51.15;41.22;67.39;;
46393;Laerm;32099;53.588;10.176;2023-02-15T14:33:01;56.44;41.33;72.50;;
46393;Laerm;32099;53.588;10.176;2023-02-15T14:35:30;52.52;41.20;70.46;;
46393;Laerm;32099;53.588;10.176;2023-02-15T14:40:34;51.07;40.49;69.59;;
46393;Laerm;32099;53.588;10.176;2023-02-15T14:46:47;54.78;40.67;73.52;;
46393;Laerm;32099;53.588;10.176;2023-02-15T14:49:23;44.33;39.87;57.37;;
46393;Laerm;32099;53.588;10.176;2023-02-15T15:02:49;50.47;39.52;69.38;;
46393;Laerm;32099;53.588;10.176;2023-02-15T15:05:53;42.89;38.86;51.00;;
46393;Laerm;32099;53.588;10.176;2023-02-15T15:08:22;47.53;39.01;65.75;;
46393;Laerm;32099;53.588;10.176;2023-02-15T15:10:50;51.45;38.10;72.48;;
46393;Laerm;32099;53.588;10.176;2023-02-15T15:15:56;52.24;38.45;71.51;;
46393;Laerm;32099;53.588;10.176;2023-02-15T15:18:47;53.85;37.30;72.65;;
46393;Laerm;32099;53.588;10.176;2023-02-15T15:27:39;42.84;37.76;54.99;;
46393;Laerm;32099;53.588;10.176;2023-02-15T15:32:49;53.68;38.55;69.12;;
46393;Laerm;32099;53.588;10.176;2023-02-15T15:38:28;54.80;40.20;72.53;;
46393;Laerm;32099;53.588;10.176;2023-02-15T15:46:29;56.17;42.56;73.74;;
46393;Laerm;32099;53.588;10.176;2023-02-15T15:49:02;49.60;40.23;68.39;;
46393;Laerm;32099;53.588;10.176;2023-02-15T15:51:32;52.54;41.29;71.53;;
46393;Laerm;32099;53.588;10.176;2023-02-15T15:54:01;50.30;41.76;66.59;;
46393;Laerm;32099;53.588;10.176;2023-02-15T15:56:33;51.45;41.23;69.79;;
46393;Laerm;32099;53.588;10.176;2023-02-15T15:59:02;52.33;40.60;71.19;;
46393;Laerm;32099;53.588;10.176;2023-02-15T16:01:34;59.06;41.16;75.07;;